sensor_id;sensor_type;location;lat;lon;timestamp;P1;durP1;ratioP1;P2;durP2;ratioP2
67074;SDS011;53990;50.334;18.640;2023-02-01T00:00:35;14.10;;;6.20;;
67074;SDS011;53990;50.334;18.640;2023-02-01T00:03:22;10.10;;;5.50;;
67074;SDS011;53990;50.334;18.640;2023-02-01T00:05:56;11.70;;;6.00;;
67074;SDS011;53990;50.334;18.640;2023-02-01T00:08:24;10.00;;;5.50;;
67074;SDS011;53990;50.334;18.640;2023-02-01T00:10:59;11.70;;;5.40;;
67074;SDS011;53990;50.334;18.640;2023-02-01T00:13:31;8.90;;;5.40;;
67074;SDS011;53990;50.334;18.640;2023-02-01T00:16:10;8.40;;;5.00;;
67074;SDS011;53990;50.334;18.640;2023-02-01T00:18:39;8.80;;;4.80;;
67074;SDS011;53990;50.334;18.640;2023-02-01T00:21:06;11.00;;;5.60;;
67074;SDS011;53990;50.334;18.640;2023-02-01T00:23:37;8.20;;;5.00;;
67074;SDS011;53990;50.334;18.640;2023-02-01T00:26:09;11.30;;;4.50;;
67074;SDS011;53990;50.334;18.640;2023-02-01T00:28:38;9.70;;;4.90;;
67074;SDS011;53990;50.334;18.640;2023-02-01T00:31:05;8.60;;;4.40;;
67074;SDS011;53990;50.334;18.640;2023-02-01T00:33:33;7.10;;;4.00;;
67074;SDS011;53990;50.334;18.640;2023-02-01T00:36:03;7.80;;;4.10;;
67074;SDS011;53990;50.334;18.640;2023-02-01T00:38:32;8.70;;;3.90;;
67074;SDS011;53990;50.334;18.640;2023-02-01T00:43:34;6.30;;;2.30;;
67074;SDS011;53990;50.334;18.640;2023-02-01T00:46:02;6.30;;;2.30;;
67074;SDS011;53990;50.334;18.640;2023-02-01T00:48:29;7.10;;;2.00;;
67074;SDS011;53990;50.334;18.640;2023-02-01T00:51:00;5.50;;;1.90;;
67074;SDS011;53990;50.334;18.640;2023-02-01T00:53:28;2.60;;;1.10;;
67074;SDS011;53990;50.334;18.640;2023-02-01T00:55:56;4.10;;;1.30;;
67074;SDS011;53990;50.334;18.640;2023-02-01T00:58:24;3.00;;;1.40;;
67074;SDS011;53990;50.334;18.640;2023-02-01T01:01:07;4.10;;;1.40;;
67074;SDS011;53990;50.334;18.640;2023-02-01T01:03:37;3.20;;;1.20;;
67074;SDS011;53990;50.334;18.640;2023-02-01T01:06:10;6.20;;;1.20;;
67074;SDS011;53990;50.334;18.640;2023-02-01T01:08:38;5.70;;;1.70;;
67074;SDS011;53990;50.334;18.640;2023-02-01T01:11:08;6.10;;;1.40;;
67074;SDS011;53990;50.334;18.640;2023-02-01T01:13:36;7.20;;;1.50;;
67074;SDS011;53990;50.334;18.640;2023-02-01T01:16:04;6.00;;;1.90;;
67074;SDS011;53990;50.334;18.640;2023-02-01T01:18:33;6.40;;;1.70;;
67074;SDS011;53990;50.334;18.640;2023-02-01T01:21:00;4.90;;;1.40;;
67074;SDS011;53990;50.334;18.640;2023-02-01T01:23:28;4.10;;;1.30;;
67074;SDS011;53990;50.334;18.640;2023-02-01T01:25:55;5.10;;;1.30;;
67074;SDS011;53990;50.334;18.640;2023-02-01T01:28:22;6.10;;;1.50;;
67074;SDS011;53990;50.334;18.640;2023-02-01T01:30:50;8.10;;;1.50;;
67074;SDS011;53990;50.334;18.640;2023-02-01T01:33:17;7.50;;;1.30;;
67074;SDS011;53990;50.334;18.640;2023-02-01T01:35:44;6.10;;;1.50;;
67074;SDS011;53990;50.334;18.640;2023-02-01T01:38:11;8.20;;;1.60;;
67074;SDS011;53990;50.334;18.640;2023-02-01T01:40:39;6.10;;;1.40;;
67074;SDS011;53990;50.334;18.640;2023-02-01T01:43:13;3.70;;;1.20;;
67074;SDS011;53990;50.334;18.640;2023-02-01T01:45:41;4.20;;;1.30;;
67074;SDS011;53990;50.334;18.640;2023-02-01T01:48:10;4.60;;;1.20;;
67074;SDS011;53990;50.334;18.640;2023-02-01T01:51:02;3.40;;;1.10;;
67074;SDS011;53990;50.334;18.640;2023-02-01T01:53:35;3.20;;;1.20;;
67074;SDS011;53990;50.334;18.640;2023-02-01T01:56:04;4.20;;;1.40;;
67074;SDS011;53990;50.334;18.640;2023-02-01T01:58:32;5.10;;;1.10;;
67074;SDS011;53990;50.334;18.640;2023-02-01T02:01:00;4.30;;;1.00;;
67074;SDS011;53990;50.334;18.640;2023-02-01T02:03:34;5.50;;;1.80;;
67074;SDS011;53990;50.334;18.640;2023-02-01T02:06:03;4.50;;;1.50;;
67074;SDS011;53990;50.334;18.640;2023-02-01T02:08:34;6.90;;;1.90;;
67074;SDS011;53990;50.334;18.640;2023-02-01T02:11:01;4.00;;;1.20;;
67074;SDS011;53990;50.334;18.640;2023-02-01T02:13:32;4.20;;;1.20;;
67074;SDS011;53990;50.334;18.640;2023-02-01T02:16:05;2.80;;;1.10;;
67074;SDS011;53990;50.334;18.640;2023-02-01T02:18:44;3.40;;;1.20;;
67074;SDS011;53990;50.334;18.640;2023-02-01T02:21:56;2.60;;;1.20;;
67074;SDS011;53990;50.334;18.640;2023-02-01T02:24:39;6.80;;;1.10;;
67074;SDS011;53990;50.334;18.640;2023-02-01T02:27:14;2.90;;;1.00;;
67074;SDS011;53990;50.334;18.640;2023-02-01T02:30:22;2.90;;;1.30;;
67074;SDS011;53990;50.334;18.640;2023-02-01T02:43:46;3.90;;;1.60;;
67074;SDS011;53990;50.334;18.640;2023-02-01T02:46:37;3.90;;;2.00;;
67074;SDS011;53990;50.334;18.640;2023-02-01T02:49:34;3.40;;;1.60;;
67074;SDS011;53990;50.334;18.640;2023-02-01T02:52:13;3.40;;;1.60;;
67074;SDS011;53990;50.334;18.640;2023-02-01T02:55:00;3.40;;;1.40;;
67074;SDS011;53990;50.334;18.640;2023-02-01T02:57:41;2.10;;;0.90;;
67074;SDS011;53990;50.334;18.640;2023-02-01T03:00:32;2.60;;;1.20;;
67074;SDS011;53990;50.334;18.640;2023-02-01T03:03:19;2.20;;;0.90;;
67074;SDS011;53990;50.334;18.640;2023-02-01T03:06:12;2.10;;;1.40;;
67074;SDS011;53990;50.334;18.640;2023-02-01T03:11:14;2.20;;;1.10;;
67074;SDS011;53990;50.334;18.640;2023-02-01T03:16:31;2.40;;;1.20;;
67074;SDS011;53990;50.334;18.640;2023-02-01T03:21:45;4.60;;;1.20;;
67074;SDS011;53990;50.334;18.640;2023-02-01T03:24:23;3.80;;;1.40;;
67074;SDS011;53990;50.334;18.640;2023-02-01T03:27:24;2.90;;;1.20;;
67074;SDS011;53990;50.334;18.640;2023-02-01T03:32:42;2.10;;;1.00;;
67074;SDS011;53990;50.334;18.640;2023-02-01T03:38:12;2.60;;;1.10;;
67074;SDS011;53990;50.334;18.640;2023-02-01T03:40:41;2.40;;;1.10;;
67074;SDS011;53990;50.334;18.640;2023-02-01T03:43:14;2.60;;;1.20;;
67074;SDS011;53990;50.334;18.640;2023-02-01T03:45:47;3.60;;;1.10;;
67074;SDS011;53990;50.334;18.640;2023-02-01T03:48:17;2.00;;;1.00;;
67074;SDS011;53990;50.334;18.640;2023-02-01T03:50:48;3.30;;;1.10;;
67074;SDS011;53990;50.334;18.640;2023-02-01T03:53:18;4.10;;;1.60;;
67074;SDS011;53990;50.334;18.640;2023-02-01T03:55:48;3.60;;;1.20;;
67074;SDS011;53990;50.334;18.640;2023-02-01T03:58:18;1.80;;;1.10;;
67074;SDS011;53990;50.334;18.640;2023-02-01T04:00:54;2.50;;;1.10;;
67074;SDS011;53990;50.334;18.640;2023-02-01T04:03:21;5.20;;;1.40;;
67074;SDS011;53990;50.334;18.640;2023-02-01T04:05:49;3.80;;;1.70;;
67074;SDS011;53990;50.334;18.640;2023-02-01T04:08:19;6.30;;;1.90;;
67074;SDS011;53990;50.334;18.640;2023-02-01T04:10:46;5.50;;;2.30;;
67074;SDS011;53990;50.334;18.640;2023-02-01T04:13:14;8.00;;;3.10;;
67074;SDS011;53990;50.334;18.640;2023-02-01T04:21:39;7.70;;;3.60;;
67074;SDS011;53990;50.334;18.640;2023-02-01T04:24:07;8.50;;;3.70;;
67074;SDS011;53990;50.334;18.640;2023-02-01T04:26:35;11.10;;;4.80;;
67074;SDS011;53990;50.334;18.640;2023-02-01T04:29:02;10.00;;;4.80;;
67074;SDS011;53990;50.334;18.640;2023-02-01T04:31:30;13.20;;;5.20;;
67074;SDS011;53990;50.334;18.640;2023-02-01T04:33:57;11.00;;;5.10;;
67074;SDS011;53990;50.334;18.640;2023-02-01T04:36:24;11.80;;;5.60;;
67074;SDS011;53990;50.334;18.640;2023-02-01T04:38:52;11.10;;;5.20;;
67074;SDS011;53990;50.334;18.640;2023-02-01T04:41:20;12.60;;;5.20;;
67074;SDS011;53990;50.334;18.640;2023-02-01T04:43:48;13.70;;;5.60;;
67074;SDS011;53990;50.334;18.640;2023-02-01T04:46:15;10.40;;;4.60;;
67074;SDS011;53990;50.334;18.640;2023-02-01T04:48:43;8.60;;;4.20;;
67074;SDS011;53990;50.334;18.640;2023-02-01T04:51:10;9.30;;;3.60;;
67074;SDS011;53990;50.334;18.640;2023-02-01T04:53:38;6.70;;;3.10;;
67074;SDS011;53990;50.334;18.640;2023-02-01T04:56:05;11.50;;;3.50;;
67074;SDS011;53990;50.334;18.640;2023-02-01T04:58:33;9.40;;;3.00;;
67074;SDS011;53990;50.334;18.640;2023-02-01T05:01:03;8.50;;;2.90;;
67074;SDS011;53990;50.334;18.640;2023-02-01T05:03:32;11.30;;;2.80;;
67074;SDS011;53990;50.334;18.640;2023-02-01T05:06:00;8.10;;;3.00;;
67074;SDS011;53990;50.334;18.640;2023-02-01T05:08:27;7.70;;;2.90;;
67074;SDS011;53990;50.334;18.640;2023-02-01T05:10:55;7.80;;;2.70;;
67074;SDS011;53990;50.334;18.640;2023-02-01T05:13:25;7.70;;;2.60;;
67074;SDS011;53990;50.334;18.640;2023-02-01T05:16:11;12.20;;;3.00;;
67074;SDS011;53990;50.334;18.640;2023-02-01T05:18:38;9.50;;;2.90;;
67074;SDS011;53990;50.334;18.640;2023-02-01T05:21:05;7.00;;;2.20;;
67074;SDS011;53990;50.334;18.640;2023-02-01T05:23:33;11.30;;;2.80;;
67074;SDS011;53990;50.334;18.640;2023-02-01T05:26:20;9.30;;;2.50;;
67074;SDS011;53990;50.334;18.640;2023-02-01T05:28:47;9.60;;;2.60;;
67074;SDS011;53990;50.334;18.640;2023-02-01T05:31:15;5.70;;;2.20;;
67074;SDS011;53990;50.334;18.640;2023-02-01T05:33:42;10.40;;;2.50;;
67074;SDS011;53990;50.334;18.640;2023-02-01T05:36:09;7.60;;;2.30;;
67074;SDS011;53990;50.334;18.640;2023-02-01T05:38:36;9.20;;;2.50;;
67074;SDS011;53990;50.334;18.640;2023-02-01T05:41:04;17.00;;;3.20;;
67074;SDS011;53990;50.334;18.640;2023-02-01T05:43:31;8.90;;;2.80;;
67074;SDS011;53990;50.334;18.640;2023-02-01T05:45:58;11.10;;;3.00;;
67074;SDS011;53990;50.334;18.640;2023-02-01T05:48:26;14.30;;;3.10;;
67074;SDS011;53990;50.334;18.640;2023-02-01T05:50:53;7.60;;;2.80;;
67074;SDS011;53990;50.334;18.640;2023-02-01T05:53:20;6.70;;;2.50;;
67074;SDS011;53990;50.334;18.640;2023-02-01T05:55:48;10.90;;;2.50;;
67074;SDS011;53990;50.334;18.640;2023-02-01T05:58:15;8.10;;;2.60;;
67074;SDS011;53990;50.334;18.640;2023-02-01T06:00:42;9.50;;;3.00;;
67074;SDS011;53990;50.334;18.640;2023-02-01T06:03:10;11.20;;;2.90;;
67074;SDS011;53990;50.334;18.640;2023-02-01T06:05:37;8.30;;;2.50;;
67074;SDS011;53990;50.334;18.640;2023-02-01T06:08:04;8.90;;;2.90;;
67074;SDS011;53990;50.334;18.640;2023-02-01T06:10:34;9.30;;;2.80;;
67074;SDS011;53990;50.334;18.640;2023-02-01T06:13:01;13.40;;;3.20;;
67074;SDS011;53990;50.334;18.640;2023-02-01T06:15:30;7.00;;;2.80;;
67074;SDS011;53990;50.334;18.640;2023-02-01T06:17:58;10.00;;;3.20;;
67074;SDS011;53990;50.334;18.640;2023-02-01T06:20:25;9.40;;;3.20;;
67074;SDS011;53990;50.334;18.640;2023-02-01T06:22:53;8.40;;;4.20;;
67074;SDS011;53990;50.334;18.640;2023-02-01T06:25:20;8.70;;;3.20;;
67074;SDS011;53990;50.334;18.640;2023-02-01T06:27:48;9.90;;;3.40;;
67074;SDS011;53990;50.334;18.640;2023-02-01T06:30:16;11.60;;;3.20;;
67074;SDS011;53990;50.334;18.640;2023-02-01T06:32:43;8.30;;;3.30;;
67074;SDS011;53990;50.334;18.640;2023-02-01T06:35:11;6.80;;;3.00;;
67074;SDS011;53990;50.334;18.640;2023-02-01T06:37:43;9.00;;;3.00;;
67074;SDS011;53990;50.334;18.640;2023-02-01T06:40:10;11.30;;;3.40;;
67074;SDS011;53990;50.334;18.640;2023-02-01T06:42:37;12.80;;;3.90;;
67074;SDS011;53990;50.334;18.640;2023-02-01T06:45:05;9.30;;;3.00;;
67074;SDS011;53990;50.334;18.640;2023-02-01T06:47:34;9.10;;;3.30;;
67074;SDS011;53990;50.334;18.640;2023-02-01T06:50:01;15.40;;;4.00;;
67074;SDS011;53990;50.334;18.640;2023-02-01T06:52:28;10.70;;;3.70;;
67074;SDS011;53990;50.334;18.640;2023-02-01T06:54:55;14.30;;;4.10;;
67074;SDS011;53990;50.334;18.640;2023-02-01T06:57:23;11.00;;;3.70;;
67074;SDS011;53990;50.334;18.640;2023-02-01T06:59:50;15.20;;;3.60;;
67074;SDS011;53990;50.334;18.640;2023-02-01T07:02:17;9.40;;;3.10;;
67074;SDS011;53990;50.334;18.640;2023-02-01T07:04:45;11.20;;;3.70;;
67074;SDS011;53990;50.334;18.640;2023-02-01T07:07:12;10.10;;;3.90;;
67074;SDS011;53990;50.334;18.640;2023-02-01T07:09:39;13.80;;;4.20;;
67074;SDS011;53990;50.334;18.640;2023-02-01T07:12:07;11.40;;;4.10;;
67074;SDS011;53990;50.334;18.640;2023-02-01T07:14:34;9.90;;;4.10;;
67074;SDS011;53990;50.334;18.640;2023-02-01T07:17:01;11.90;;;4.60;;
67074;SDS011;53990;50.334;18.640;2023-02-01T07:19:28;11.30;;;4.50;;
67074;SDS011;53990;50.334;18.640;2023-02-01T07:21:56;13.10;;;4.50;;
67074;SDS011;53990;50.334;18.640;2023-02-01T07:24:23;10.40;;;4.10;;
67074;SDS011;53990;50.334;18.640;2023-02-01T07:26:50;13.50;;;5.30;;
67074;SDS011;53990;50.334;18.640;2023-02-01T07:29:18;12.10;;;4.30;;
67074;SDS011;53990;50.334;18.640;2023-02-01T07:31:46;11.50;;;4.00;;
67074;SDS011;53990;50.334;18.640;2023-02-01T07:34:13;12.30;;;3.50;;
67074;SDS011;53990;50.334;18.640;2023-02-01T07:36:41;9.80;;;4.40;;
67074;SDS011;53990;50.334;18.640;2023-02-01T07:39:08;13.60;;;4.30;;
67074;SDS011;53990;50.334;18.640;2023-02-01T07:41:36;14.20;;;3.80;;
67074;SDS011;53990;50.334;18.640;2023-02-01T07:44:03;13.70;;;4.30;;
67074;SDS011;53990;50.334;18.640;2023-02-01T07:46:30;11.50;;;4.30;;
67074;SDS011;53990;50.334;18.640;2023-02-01T07:48:58;12.60;;;4.40;;
67074;SDS011;53990;50.334;18.640;2023-02-01T07:51:25;9.40;;;3.80;;
67074;SDS011;53990;50.334;18.640;2023-02-01T07:53:52;10.00;;;4.10;;
67074;SDS011;53990;50.334;18.640;2023-02-01T07:56:20;14.30;;;4.80;;
67074;SDS011;53990;50.334;18.640;2023-02-01T07:58:50;13.00;;;5.30;;
67074;SDS011;53990;50.334;18.640;2023-02-01T08:01:25;14.00;;;5.10;;
67074;SDS011;53990;50.334;18.640;2023-02-01T08:03:58;12.90;;;5.10;;
67074;SDS011;53990;50.334;18.640;2023-02-01T08:06:31;11.90;;;4.70;;
67074;SDS011;53990;50.334;18.640;2023-02-01T08:08:58;13.70;;;5.00;;
67074;SDS011;53990;50.334;18.640;2023-02-01T08:11:25;12.00;;;5.00;;
67074;SDS011;53990;50.334;18.640;2023-02-01T08:13:53;14.10;;;5.60;;
67074;SDS011;53990;50.334;18.640;2023-02-01T08:16:21;12.40;;;4.60;;
67074;SDS011;53990;50.334;18.640;2023-02-01T08:18:51;13.10;;;5.20;;
67074;SDS011;53990;50.334;18.640;2023-02-01T08:21:21;12.60;;;5.50;;
67074;SDS011;53990;50.334;18.640;2023-02-01T08:23:49;10.70;;;5.10;;
67074;SDS011;53990;50.334;18.640;2023-02-01T08:26:22;15.10;;;5.10;;
67074;SDS011;53990;50.334;18.640;2023-02-01T08:28:52;12.80;;;5.00;;
67074;SDS011;53990;50.334;18.640;2023-02-01T08:31:21;13.90;;;5.80;;
67074;SDS011;53990;50.334;18.640;2023-02-01T08:33:52;12.60;;;5.70;;
67074;SDS011;53990;50.334;18.640;2023-02-01T08:36:21;16.20;;;6.20;;
67074;SDS011;53990;50.334;18.640;2023-02-01T08:38:48;15.80;;;5.70;;
67074;SDS011;53990;50.334;18.640;2023-02-01T08:41:18;14.70;;;6.50;;
67074;SDS011;53990;50.334;18.640;2023-02-01T08:43:46;14.60;;;6.60;;
67074;SDS011;53990;50.334;18.640;2023-02-01T08:46:15;17.30;;;5.90;;
67074;SDS011;53990;50.334;18.640;2023-02-01T08:48:43;15.60;;;6.20;;
67074;SDS011;53990;50.334;18.640;2023-02-01T08:51:13;12.60;;;6.30;;
67074;SDS011;53990;50.334;18.640;2023-02-01T08:53:41;14.00;;;6.70;;
67074;SDS011;53990;50.334;18.640;2023-02-01T08:56:10;12.00;;;6.30;;
67074;SDS011;53990;50.334;18.640;2023-02-01T08:58:38;18.10;;;8.10;;
67074;SDS011;53990;50.334;18.640;2023-02-01T09:01:08;14.20;;;6.30;;
67074;SDS011;53990;50.334;18.640;2023-02-01T09:03:36;17.80;;;6.90;;
67074;SDS011;53990;50.334;18.640;2023-02-01T09:06:05;14.10;;;6.50;;
67074;SDS011;53990;50.334;18.640;2023-02-01T09:08:33;18.50;;;8.50;;
67074;SDS011;53990;50.334;18.640;2023-02-01T09:11:07;15.90;;;7.40;;
67074;SDS011;53990;50.334;18.640;2023-02-01T09:13:34;11.30;;;6.00;;
67074;SDS011;53990;50.334;18.640;2023-02-01T09:16:03;14.10;;;6.80;;
67074;SDS011;53990;50.334;18.640;2023-02-01T09:18:30;13.80;;;6.70;;
67074;SDS011;53990;50.334;18.640;2023-02-01T09:20:58;15.30;;;7.30;;
67074;SDS011;53990;50.334;18.640;2023-02-01T09:23:25;16.20;;;6.40;;
67074;SDS011;53990;50.334;18.640;2023-02-01T09:25:52;17.60;;;7.50;;
67074;SDS011;53990;50.334;18.640;2023-02-01T09:28:20;14.50;;;6.60;;
67074;SDS011;53990;50.334;18.640;2023-02-01T09:30:47;14.90;;;6.80;;
67074;SDS011;53990;50.334;18.640;2023-02-01T09:33:14;14.60;;;6.00;;
67074;SDS011;53990;50.334;18.640;2023-02-01T09:35:42;16.80;;;6.90;;
67074;SDS011;53990;50.334;18.640;2023-02-01T09:38:09;15.20;;;6.90;;
67074;SDS011;53990;50.334;18.640;2023-02-01T09:40:39;17.20;;;6.60;;
67074;SDS011;53990;50.334;18.640;2023-02-01T09:43:25;14.10;;;6.50;;
67074;SDS011;53990;50.334;18.640;2023-02-01T09:48:44;17.10;;;7.40;;
67074;SDS011;53990;50.334;18.640;2023-02-01T09:51:19;18.00;;;7.70;;
67074;SDS011;53990;50.334;18.640;2023-02-01T09:54:03;18.30;;;8.30;;
67074;SDS011;53990;50.334;18.640;2023-02-01T09:56:47;18.30;;;8.80;;
67074;SDS011;53990;50.334;18.640;2023-02-01T10:01:58;19.70;;;8.90;;
67074;SDS011;53990;50.334;18.640;2023-02-01T10:04:26;24.00;;;10.20;;
67074;SDS011;53990;50.334;18.640;2023-02-01T10:07:06;24.00;;;10.40;;
67074;SDS011;53990;50.334;18.640;2023-02-01T10:10:05;23.50;;;10.80;;
67074;SDS011;53990;50.334;18.640;2023-02-01T10:18:32;17.80;;;9.40;;
67074;SDS011;53990;50.334;18.640;2023-02-01T10:26:34;19.40;;;7.60;;
67074;SDS011;53990;50.334;18.640;2023-02-01T10:29:04;15.00;;;7.30;;
67074;SDS011;53990;50.334;18.640;2023-02-01T10:31:40;17.70;;;8.50;;
67074;SDS011;53990;50.334;18.640;2023-02-01T10:34:21;20.70;;;8.30;;
67074;SDS011;53990;50.334;18.640;2023-02-01T10:36:59;17.00;;;7.30;;
67074;SDS011;53990;50.334;18.640;2023-02-01T10:39:27;16.60;;;7.70;;
67074;SDS011;53990;50.334;18.640;2023-02-01T10:41:55;15.00;;;7.40;;
67074;SDS011;53990;50.334;18.640;2023-02-01T10:44:28;16.30;;;7.80;;
67074;SDS011;53990;50.334;18.640;2023-02-01T10:46:57;17.10;;;7.20;;
67074;SDS011;53990;50.334;18.640;2023-02-01T10:49:33;18.20;;;7.40;;
67074;SDS011;53990;50.334;18.640;2023-02-01T10:52:12;15.90;;;7.50;;
67074;SDS011;53990;50.334;18.640;2023-02-01T10:54:42;18.40;;;7.80;;
67074;SDS011;53990;50.334;18.640;2023-02-01T10:57:22;19.30;;;8.20;;
67074;SDS011;53990;50.334;18.640;2023-02-01T10:59:52;15.40;;;7.20;;
67074;SDS011;53990;50.334;18.640;2023-02-01T11:02:29;14.20;;;7.00;;
67074;SDS011;53990;50.334;18.640;2023-02-01T11:05:00;14.40;;;6.60;;
67074;SDS011;53990;50.334;18.640;2023-02-01T11:07:28;12.00;;;6.00;;
67074;SDS011;53990;50.334;18.640;2023-02-01T11:09:56;17.50;;;6.80;;
67074;SDS011;53990;50.334;18.640;2023-02-01T11:12:29;14.80;;;5.60;;
67074;SDS011;53990;50.334;18.640;2023-02-01T11:14:59;10.20;;;4.60;;
67074;SDS011;53990;50.334;18.640;2023-02-01T11:17:33;7.40;;;2.80;;
67074;SDS011;53990;50.334;18.640;2023-02-01T11:20:17;6.60;;;2.70;;
67074;SDS011;53990;50.334;18.640;2023-02-01T11:22:54;12.00;;;2.50;;
67074;SDS011;53990;50.334;18.640;2023-02-01T11:25:23;6.50;;;2.40;;
67074;SDS011;53990;50.334;18.640;2023-02-01T11:27:53;10.10;;;3.40;;
67074;SDS011;53990;50.334;18.640;2023-02-01T11:30:38;7.80;;;2.90;;
67074;SDS011;53990;50.334;18.640;2023-02-01T11:33:13;7.00;;;2.90;;
67074;SDS011;53990;50.334;18.640;2023-02-01T11:35:42;9.70;;;3.20;;
67074;SDS011;53990;50.334;18.640;2023-02-01T11:38:22;12.20;;;5.00;;
67074;SDS011;53990;50.334;18.640;2023-02-01T11:40:52;261.30;;;45.50;;
67074;SDS011;53990;50.334;18.640;2023-02-01T11:43:27;914.90;;;156.70;;
67074;SDS011;53990;50.334;18.640;2023-02-01T11:45:58;1812.70;;;321.10;;
67074;SDS011;53990;50.334;18.640;2023-02-01T11:48:29;1566.00;;;241.90;;
67074;SDS011;53990;50.334;18.640;2023-02-01T11:54:11;14.10;;;3.70;;
67074;SDS011;53990;50.334;18.640;2023-02-01T12:02:18;8.40;;;4.00;;
67074;SDS011;53990;50.334;18.640;2023-02-01T12:07:47;8.00;;;3.00;;
67074;SDS011;53990;50.334;18.640;2023-02-01T12:24:12;7.20;;;3.40;;
67074;SDS011;53990;50.334;18.640;2023-02-01T12:26:50;14.70;;;3.40;;
67074;SDS011;53990;50.334;18.640;2023-02-01T12:29:34;8.50;;;3.80;;
67074;SDS011;53990;50.334;18.640;2023-02-01T12:34:57;8.40;;;3.70;;
67074;SDS011;53990;50.334;18.640;2023-02-01T12:37:51;10.00;;;4.00;;
67074;SDS011;53990;50.334;18.640;2023-02-01T12:43:17;8.20;;;4.00;;
67074;SDS011;53990;50.334;18.640;2023-02-01T12:46:06;8.60;;;3.80;;
67074;SDS011;53990;50.334;18.640;2023-02-01T12:48:38;9.70;;;4.70;;
67074;SDS011;53990;50.334;18.640;2023-02-01T12:51:12;9.10;;;4.00;;
67074;SDS011;53990;50.334;18.640;2023-02-01T12:56:39;11.40;;;4.20;;
67074;SDS011;53990;50.334;18.640;2023-02-01T12:59:19;11.60;;;4.90;;
67074;SDS011;53990;50.334;18.640;2023-02-01T13:02:04;10.90;;;4.70;;
67074;SDS011;53990;50.334;18.640;2023-02-01T13:04:38;9.70;;;4.60;;
67074;SDS011;53990;50.334;18.640;2023-02-01T13:07:12;13.30;;;5.90;;
67074;SDS011;53990;50.334;18.640;2023-02-01T13:09:52;13.00;;;5.60;;
67074;SDS011;53990;50.334;18.640;2023-02-01T13:12:37;10.70;;;4.90;;
67074;SDS011;53990;50.334;18.640;2023-02-01T13:15:19;10.10;;;5.10;;
67074;SDS011;53990;50.334;18.640;2023-02-01T13:17:48;12.60;;;5.20;;
67074;SDS011;53990;50.334;18.640;2023-02-01T13:22:54;9.40;;;4.10;;
67074;SDS011;53990;50.334;18.640;2023-02-01T13:25:39;14.80;;;5.10;;
67074;SDS011;53990;50.334;18.640;2023-02-01T13:28:19;9.40;;;4.50;;
67074;SDS011;53990;50.334;18.640;2023-02-01T13:30:59;11.90;;;5.70;;
67074;SDS011;53990;50.334;18.640;2023-02-01T13:33:59;11.70;;;5.50;;
67074;SDS011;53990;50.334;18.640;2023-02-01T13:36:53;10.20;;;4.60;;
67074;SDS011;53990;50.334;18.640;2023-02-01T13:42:02;6.10;;;3.00;;
67074;SDS011;53990;50.334;18.640;2023-02-01T13:44:34;7.10;;;3.10;;
67074;SDS011;53990;50.334;18.640;2023-02-01T13:47:24;7.90;;;3.60;;
67074;SDS011;53990;50.334;18.640;2023-02-01T13:49:54;19.60;;;8.20;;
67074;SDS011;53990;50.334;18.640;2023-02-01T13:55:56;7.20;;;3.50;;
67074;SDS011;53990;50.334;18.640;2023-02-01T13:58:36;5.50;;;3.30;;
67074;SDS011;53990;50.334;18.640;2023-02-01T14:03:57;9.20;;;4.50;;
67074;SDS011;53990;50.334;18.640;2023-02-01T14:11:51;6.20;;;3.40;;
67074;SDS011;53990;50.334;18.640;2023-02-01T14:19:29;9.10;;;3.90;;
67074;SDS011;53990;50.334;18.640;2023-02-01T14:22:29;6.40;;;3.90;;
67074;SDS011;53990;50.334;18.640;2023-02-01T14:24:52;7.90;;;4.00;;
67074;SDS011;53990;50.334;18.640;2023-02-01T14:27:29;7.40;;;3.80;;
67074;SDS011;53990;50.334;18.640;2023-02-01T14:29:59;6.90;;;4.00;;
67074;SDS011;53990;50.334;18.640;2023-02-01T14:32:39;6.90;;;4.50;;
67074;SDS011;53990;50.334;18.640;2023-02-01T14:35:24;7.20;;;3.80;;
67074;SDS011;53990;50.334;18.640;2023-02-01T14:37:54;12.60;;;4.90;;
67074;SDS011;53990;50.334;18.640;2023-02-01T14:40:27;8.10;;;4.20;;
67074;SDS011;53990;50.334;18.640;2023-02-01T14:42:55;14.70;;;6.80;;
67074;SDS011;53990;50.334;18.640;2023-02-01T14:50:34;8.70;;;4.60;;
67074;SDS011;53990;50.334;18.640;2023-02-01T15:01:18;10.70;;;4.70;;
67074;SDS011;53990;50.334;18.640;2023-02-01T15:03:48;8.10;;;3.90;;
67074;SDS011;53990;50.334;18.640;2023-02-01T15:06:44;7.70;;;4.10;;
67074;SDS011;53990;50.334;18.640;2023-02-01T15:14:31;7.80;;;4.20;;
67074;SDS011;53990;50.334;18.640;2023-02-01T15:16:58;10.10;;;5.20;;
67074;SDS011;53990;50.334;18.640;2023-02-01T15:19:28;13.70;;;6.20;;
67074;SDS011;53990;50.334;18.640;2023-02-01T15:21:57;16.20;;;6.20;;
67074;SDS011;53990;50.334;18.640;2023-02-01T15:24:30;9.30;;;4.10;;
67074;SDS011;53990;50.334;18.640;2023-02-01T15:27:09;10.60;;;4.10;;
67074;SDS011;53990;50.334;18.640;2023-02-01T15:29:36;8.60;;;3.70;;
67074;SDS011;53990;50.334;18.640;2023-02-01T15:32:04;6.70;;;3.60;;
67074;SDS011;53990;50.334;18.640;2023-02-01T15:34:47;7.80;;;4.10;;
67074;SDS011;53990;50.334;18.640;2023-02-01T15:37:16;7.00;;;3.50;;
67074;SDS011;53990;50.334;18.640;2023-02-01T15:40:20;6.30;;;3.30;;
67074;SDS011;53990;50.334;18.640;2023-02-01T15:42:56;15.30;;;7.80;;
67074;SDS011;53990;50.334;18.640;2023-02-01T15:45:26;15.10;;;6.60;;
67074;SDS011;53990;50.334;18.640;2023-02-01T15:47:56;20.80;;;10.90;;
67074;SDS011;53990;50.334;18.640;2023-02-01T15:50:24;12.40;;;8.20;;
67074;SDS011;53990;50.334;18.640;2023-02-01T15:52:53;211.70;;;101.80;;
67074;SDS011;53990;50.334;18.640;2023-02-01T15:55:36;35.80;;;18.20;;
67074;SDS011;53990;50.334;18.640;2023-02-01T15:58:30;14.60;;;7.50;;
67074;SDS011;53990;50.334;18.640;2023-02-01T16:01:01;10.00;;;4.80;;
67074;SDS011;53990;50.334;18.640;2023-02-01T16:03:40;9.10;;;4.70;;
67074;SDS011;53990;50.334;18.640;2023-02-01T16:06:11;9.70;;;4.50;;
67074;SDS011;53990;50.334;18.640;2023-02-01T16:08:50;11.20;;;5.10;;
67074;SDS011;53990;50.334;18.640;2023-02-01T16:11:30;10.10;;;5.40;;
67074;SDS011;53990;50.334;18.640;2023-02-01T16:13:59;12.30;;;6.90;;
67074;SDS011;53990;50.334;18.640;2023-02-01T16:16:28;13.90;;;6.30;;
67074;SDS011;53990;50.334;18.640;2023-02-01T16:18:56;12.60;;;7.00;;
67074;SDS011;53990;50.334;18.640;2023-02-01T16:21:23;10.50;;;5.40;;
67074;SDS011;53990;50.334;18.640;2023-02-01T16:23:51;15.10;;;10.00;;
67074;SDS011;53990;50.334;18.640;2023-02-01T16:26:19;15.80;;;9.50;;
67074;SDS011;53990;50.334;18.640;2023-02-01T16:28:47;12.80;;;7.40;;
67074;SDS011;53990;50.334;18.640;2023-02-01T16:31:21;13.30;;;5.30;;
67074;SDS011;53990;50.334;18.640;2023-02-01T16:33:50;12.60;;;5.80;;
67074;SDS011;53990;50.334;18.640;2023-02-01T16:36:19;12.40;;;5.60;;
67074;SDS011;53990;50.334;18.640;2023-02-01T16:38:47;15.10;;;6.50;;
67074;SDS011;53990;50.334;18.640;2023-02-01T16:41:17;11.80;;;4.60;;
67074;SDS011;53990;50.334;18.640;2023-02-01T16:43:45;11.70;;;5.10;;
67074;SDS011;53990;50.334;18.640;2023-02-01T16:46:17;11.80;;;4.90;;
67074;SDS011;53990;50.334;18.640;2023-02-01T16:48:58;10.10;;;5.50;;
67074;SDS011;53990;50.334;18.640;2023-02-01T16:51:28;10.20;;;4.80;;
67074;SDS011;53990;50.334;18.640;2023-02-01T16:54:00;9.00;;;4.50;;
67074;SDS011;53990;50.334;18.640;2023-02-01T16:56:32;10.50;;;5.30;;
67074;SDS011;53990;50.334;18.640;2023-02-01T16:59:00;9.70;;;4.20;;